sensor_id;sensor_type;location;lat;lon;timestamp;P1;durP1;ratioP1;P2;durP2;ratioP2
41309;SDS011;27057;51.438;-0.010;2023-08-12T00:02:12;10.05;;;3.22;;
41309;SDS011;27057;51.438;-0.010;2023-08-12T00:04:39;15.40;;;3.00;;
41309;SDS011;27057;51.438;-0.010;2023-08-12T00:07:07;11.13;;;3.00;;
41309;SDS011;27057;51.438;-0.010;2023-08-12T00:09:35;11.57;;;3.38;;
41309;SDS011;27057;51.438;-0.010;2023-08-12T00:12:03;12.98;;;4.07;;
41309;SDS011;27057;51.438;-0.010;2023-08-12T00:14:30;14.55;;;3.83;;
41309;SDS011;27057;51.438;-0.010;2023-08-12T00:16:57;15.80;;;4.28;;
41309;SDS011;27057;51.438;-0.010;2023-08-12T00:19:25;12.63;;;3.00;;
41309;SDS011;27057;51.438;-0.010;2023-08-12T00:21:52;15.98;;;4.13;;
41309;SDS011;27057;51.438;-0.010;2023-08-12T00:24:19;15.23;;;3.63;;
41309;SDS011;27057;51.438;-0.010;2023-08-12T00:26:47;17.20;;;3.00;;
41309;SDS011;27057;51.438;-0.010;2023-08-12T00:29:14;10.52;;;3.85;;
41309;SDS011;27057;51.438;-0.010;2023-08-12T00:31:42;15.52;;;4.05;;
41309;SDS011;27057;51.438;-0.010;2023-08-12T00:34:12;13.45;;;3.55;;
41309;SDS011;27057;51.438;-0.010;2023-08-12T00:36:39;17.40;;;4.30;;
41309;SDS011;27057;51.438;-0.010;2023-08-12T00:39:06;19.10;;;3.50;;
41309;SDS011;27057;51.438;-0.010;2023-08-12T00:41:34;22.08;;;4.05;;
41309;SDS011;27057;51.438;-0.010;2023-08-12T00:44:01;19.27;;;3.83;;
41309;SDS011;27057;51.438;-0.010;2023-08-12T00:46:29;14.55;;;3.22;;
41309;SDS011;27057;51.438;-0.010;2023-08-12T00:48:59;10.55;;;3.22;;
41309;SDS011;27057;51.438;-0.010;2023-08-12T00:51:27;12.45;;;3.50;;
41309;SDS011;27057;51.438;-0.010;2023-08-12T00:53:54;15.75;;;4.10;;
41309;SDS011;27057;51.438;-0.010;2023-08-12T00:56:25;13.63;;;3.78;;
41309;SDS011;27057;51.438;-0.010;2023-08-12T00:59:03;11.65;;;4.18;;
41309;SDS011;27057;51.438;-0.010;2023-08-12T01:01:33;14.35;;;3.33;;
41309;SDS011;27057;51.438;-0.010;2023-08-12T01:04:02;14.02;;;3.95;;
41309;SDS011;27057;51.438;-0.010;2023-08-12T01:06:29;14.43;;;3.65;;
41309;SDS011;27057;51.438;-0.010;2023-08-12T01:08:57;16.45;;;3.25;;
41309;SDS011;27057;51.438;-0.010;2023-08-12T01:11:26;19.38;;;3.72;;
41309;SDS011;27057;51.438;-0.010;2023-08-12T01:14:00;13.48;;;3.20;;
41309;SDS011;27057;51.438;-0.010;2023-08-12T01:16:50;14.70;;;4.15;;
41309;SDS011;27057;51.438;-0.010;2023-08-12T01:19:30;19.15;;;3.97;;
41309;SDS011;27057;51.438;-0.010;2023-08-12T01:22:01;13.45;;;3.65;;
41309;SDS011;27057;51.438;-0.010;2023-08-12T01:24:37;8.98;;;2.92;;
41309;SDS011;27057;51.438;-0.010;2023-08-12T01:27:07;40.22;;;7.18;;
41309;SDS011;27057;51.438;-0.010;2023-08-12T01:29:38;12.95;;;3.70;;
41309;SDS011;27057;51.438;-0.010;2023-08-12T01:32:25;14.93;;;3.35;;
41309;SDS011;27057;51.438;-0.010;2023-08-12T01:35:11;13.25;;;3.65;;
41309;SDS011;27057;51.438;-0.010;2023-08-12T01:37:50;12.00;;;3.55;;
41309;SDS011;27057;51.438;-0.010;2023-08-12T01:40:21;17.98;;;3.47;;
41309;SDS011;27057;51.438;-0.010;2023-08-12T01:42:49;14.05;;;3.55;;
41309;SDS011;27057;51.438;-0.010;2023-08-12T01:45:17;11.65;;;3.83;;
41309;SDS011;27057;51.438;-0.010;2023-08-12T01:47:46;15.52;;;3.42;;
41309;SDS011;27057;51.438;-0.010;2023-08-12T01:50:14;9.57;;;3.50;;
41309;SDS011;27057;51.438;-0.010;2023-08-12T01:52:42;12.15;;;3.28;;
41309;SDS011;27057;51.438;-0.010;2023-08-12T01:55:09;14.85;;;3.55;;
41309;SDS011;27057;51.438;-0.010;2023-08-12T01:57:37;16.08;;;3.70;;
41309;SDS011;27057;51.438;-0.010;2023-08-12T02:00:05;16.95;;;3.70;;
41309;SDS011;27057;51.438;-0.010;2023-08-12T02:02:53;17.23;;;3.80;;
41309;SDS011;27057;51.438;-0.010;2023-08-12T02:05:20;10.13;;;3.15;;
41309;SDS011;27057;51.438;-0.010;2023-08-12T02:07:49;14.60;;;3.50;;
41309;SDS011;27057;51.438;-0.010;2023-08-12T02:10:18;20.02;;;4.03;;
41309;SDS011;27057;51.438;-0.010;2023-08-12T02:12:45;20.20;;;4.20;;
41309;SDS011;27057;51.438;-0.010;2023-08-12T02:15:12;17.30;;;4.45;;
41309;SDS011;27057;51.438;-0.010;2023-08-12T02:17:40;20.08;;;5.13;;
41309;SDS011;27057;51.438;-0.010;2023-08-12T02:20:08;10.30;;;3.85;;
41309;SDS011;27057;51.438;-0.010;2023-08-12T02:22:35;21.90;;;4.38;;
41309;SDS011;27057;51.438;-0.010;2023-08-12T02:25:04;13.95;;;4.03;;
41309;SDS011;27057;51.438;-0.010;2023-08-12T02:27:31;11.98;;;4.32;;
41309;SDS011;27057;51.438;-0.010;2023-08-12T02:29:59;14.07;;;4.15;;
41309;SDS011;27057;51.438;-0.010;2023-08-12T02:32:26;18.27;;;4.82;;
41309;SDS011;27057;51.438;-0.010;2023-08-12T02:34:54;17.77;;;4.70;;
41309;SDS011;27057;51.438;-0.010;2023-08-12T02:37:21;19.10;;;5.60;;
41309;SDS011;27057;51.438;-0.010;2023-08-12T02:39:49;20.58;;;5.70;;
41309;SDS011;27057;51.438;-0.010;2023-08-12T02:42:16;15.18;;;4.88;;
41309;SDS011;27057;51.438;-0.010;2023-08-12T02:44:43;15.45;;;4.82;;
41309;SDS011;27057;51.438;-0.010;2023-08-12T02:47:10;22.00;;;4.90;;
41309;SDS011;27057;51.438;-0.010;2023-08-12T02:49:38;16.58;;;5.15;;
41309;SDS011;27057;51.438;-0.010;2023-08-12T02:52:06;13.48;;;5.10;;
41309;SDS011;27057;51.438;-0.010;2023-08-12T02:54:33;17.50;;;5.22;;
41309;SDS011;27057;51.438;-0.010;2023-08-12T02:57:00;12.48;;;5.95;;
41309;SDS011;27057;51.438;-0.010;2023-08-12T02:59:28;14.88;;;4.82;;
41309;SDS011;27057;51.438;-0.010;2023-08-12T03:01:56;17.90;;;5.47;;
41309;SDS011;27057;51.438;-0.010;2023-08-12T03:04:24;17.38;;;5.10;;
41309;SDS011;27057;51.438;-0.010;2023-08-12T03:06:52;16.70;;;4.97;;
41309;SDS011;27057;51.438;-0.010;2023-08-12T03:09:19;18.55;;;5.63;;
41309;SDS011;27057;51.438;-0.010;2023-08-12T03:11:47;13.32;;;4.65;;
41309;SDS011;27057;51.438;-0.010;2023-08-12T03:14:15;17.00;;;5.80;;
41309;SDS011;27057;51.438;-0.010;2023-08-12T03:16:44;30.42;;;6.45;;
41309;SDS011;27057;51.438;-0.010;2023-08-12T03:19:11;38.42;;;6.53;;
41309;SDS011;27057;51.438;-0.010;2023-08-12T03:21:40;18.42;;;5.95;;
41309;SDS011;27057;51.438;-0.010;2023-08-12T03:24:07;20.60;;;5.55;;
41309;SDS011;27057;51.438;-0.010;2023-08-12T03:26:35;25.63;;;5.97;;
41309;SDS011;27057;51.438;-0.010;2023-08-12T03:29:02;18.35;;;6.68;;
41309;SDS011;27057;51.438;-0.010;2023-08-12T03:31:30;25.83;;;7.25;;
41309;SDS011;27057;51.438;-0.010;2023-08-12T03:33:57;22.58;;;7.53;;
41309;SDS011;27057;51.438;-0.010;2023-08-12T03:36:27;18.35;;;6.68;;
41309;SDS011;27057;51.438;-0.010;2023-08-12T03:38:54;16.05;;;7.35;;
41309;SDS011;27057;51.438;-0.010;2023-08-12T03:41:25;17.00;;;7.50;;
41309;SDS011;27057;51.438;-0.010;2023-08-12T03:43:55;17.23;;;8.50;;
41309;SDS011;27057;51.438;-0.010;2023-08-12T03:46:24;24.88;;;7.57;;
41309;SDS011;27057;51.438;-0.010;2023-08-12T03:48:52;24.58;;;9.38;;
41309;SDS011;27057;51.438;-0.010;2023-08-12T03:51:19;22.55;;;8.15;;
41309;SDS011;27057;51.438;-0.010;2023-08-12T03:53:46;23.30;;;8.30;;
41309;SDS011;27057;51.438;-0.010;2023-08-12T03:56:14;28.30;;;10.18;;
41309;SDS011;27057;51.438;-0.010;2023-08-12T03:58:43;35.80;;;9.80;;
41309;SDS011;27057;51.438;-0.010;2023-08-12T04:01:10;33.78;;;9.77;;
41309;SDS011;27057;51.438;-0.010;2023-08-12T04:03:38;32.80;;;9.50;;
41309;SDS011;27057;51.438;-0.010;2023-08-12T04:06:05;24.90;;;9.40;;
41309;SDS011;27057;51.438;-0.010;2023-08-12T04:08:33;36.45;;;9.20;;
41309;SDS011;27057;51.438;-0.010;2023-08-12T04:11:01;25.88;;;10.63;;
41309;SDS011;27057;51.438;-0.010;2023-08-12T04:13:28;24.70;;;9.32;;
41309;SDS011;27057;51.438;-0.010;2023-08-12T04:15:55;27.20;;;7.93;;
41309;SDS011;27057;51.438;-0.010;2023-08-12T04:18:24;19.65;;;8.57;;
41309;SDS011;27057;51.438;-0.010;2023-08-12T04:20:52;26.95;;;9.43;;
41309;SDS011;27057;51.438;-0.010;2023-08-12T04:23:20;28.50;;;9.38;;
41309;SDS011;27057;51.438;-0.010;2023-08-12T04:25:48;27.00;;;8.60;;
41309;SDS011;27057;51.438;-0.010;2023-08-12T04:28:18;25.27;;;7.80;;
41309;SDS011;27057;51.438;-0.010;2023-08-12T04:30:48;36.67;;;10.45;;
41309;SDS011;27057;51.438;-0.010;2023-08-12T04:33:21;25.63;;;10.60;;
41309;SDS011;27057;51.438;-0.010;2023-08-12T04:35:49;36.35;;;10.10;;
41309;SDS011;27057;51.438;-0.010;2023-08-12T04:38:19;23.10;;;10.55;;
41309;SDS011;27057;51.438;-0.010;2023-08-12T04:40:49;35.08;;;11.32;;
41309;SDS011;27057;51.438;-0.010;2023-08-12T04:43:16;28.35;;;9.82;;
41309;SDS011;27057;51.438;-0.010;2023-08-12T04:45:47;23.95;;;10.32;;
41309;SDS011;27057;51.438;-0.010;2023-08-12T04:48:18;26.25;;;12.00;;
41309;SDS011;27057;51.438;-0.010;2023-08-12T04:50:45;32.38;;;11.73;;
41309;SDS011;27057;51.438;-0.010;2023-08-12T04:53:12;24.05;;;11.40;;
41309;SDS011;27057;51.438;-0.010;2023-08-12T04:55:40;31.60;;;11.55;;
41309;SDS011;27057;51.438;-0.010;2023-08-12T04:58:08;35.72;;;10.95;;
41309;SDS011;27057;51.438;-0.010;2023-08-12T05:00:36;26.60;;;9.88;;
41309;SDS011;27057;51.438;-0.010;2023-08-12T05:03:04;32.95;;;10.45;;
41309;SDS011;27057;51.438;-0.010;2023-08-12T05:05:32;29.25;;;8.55;;
41309;SDS011;27057;51.438;-0.010;2023-08-12T05:07:59;35.25;;;9.30;;
41309;SDS011;27057;51.438;-0.010;2023-08-12T05:10:27;30.75;;;9.02;;
41309;SDS011;27057;51.438;-0.010;2023-08-12T05:12:57;27.20;;;9.15;;
41309;SDS011;27057;51.438;-0.010;2023-08-12T05:15:25;31.10;;;10.20;;
41309;SDS011;27057;51.438;-0.010;2023-08-12T05:17:54;34.35;;;9.63;;
41309;SDS011;27057;51.438;-0.010;2023-08-12T05:20:22;32.90;;;8.73;;
41309;SDS011;27057;51.438;-0.010;2023-08-12T05:22:50;32.78;;;8.77;;
41309;SDS011;27057;51.438;-0.010;2023-08-12T05:25:17;25.70;;;8.43;;
41309;SDS011;27057;51.438;-0.010;2023-08-12T05:27:44;23.75;;;7.45;;
41309;SDS011;27057;51.438;-0.010;2023-08-12T05:30:12;26.60;;;8.80;;
41309;SDS011;27057;51.438;-0.010;2023-08-12T05:32:39;23.75;;;8.25;;
41309;SDS011;27057;51.438;-0.010;2023-08-12T05:35:07;30.90;;;8.18;;
41309;SDS011;27057;51.438;-0.010;2023-08-12T05:37:35;41.55;;;7.97;;
41309;SDS011;27057;51.438;-0.010;2023-08-12T05:40:02;21.83;;;7.05;;
41309;SDS011;27057;51.438;-0.010;2023-08-12T05:42:35;25.20;;;7.18;;
41309;SDS011;27057;51.438;-0.010;2023-08-12T05:45:03;23.60;;;7.88;;
41309;SDS011;27057;51.438;-0.010;2023-08-12T05:47:34;21.38;;;6.75;;
41309;SDS011;27057;51.438;-0.010;2023-08-12T05:50:01;23.02;;;5.88;;
41309;SDS011;27057;51.438;-0.010;2023-08-12T05:52:29;25.10;;;6.10;;
41309;SDS011;27057;51.438;-0.010;2023-08-12T05:54:56;24.85;;;6.13;;
41309;SDS011;27057;51.438;-0.010;2023-08-12T05:57:24;32.70;;;6.70;;
41309;SDS011;27057;51.438;-0.010;2023-08-12T05:59:55;29.00;;;5.63;;
41309;SDS011;27057;51.438;-0.010;2023-08-12T06:02:22;23.63;;;4.93;;
41309;SDS011;27057;51.438;-0.010;2023-08-12T06:04:50;25.23;;;5.93;;
41309;SDS011;27057;51.438;-0.010;2023-08-12T06:07:17;16.35;;;4.63;;
41309;SDS011;27057;51.438;-0.010;2023-08-12T06:09:45;24.42;;;5.07;;
41309;SDS011;27057;51.438;-0.010;2023-08-12T06:12:12;30.58;;;4.50;;
41309;SDS011;27057;51.438;-0.010;2023-08-12T06:14:41;21.05;;;4.28;;
41309;SDS011;27057;51.438;-0.010;2023-08-12T06:17:08;26.75;;;5.35;;
41309;SDS011;27057;51.438;-0.010;2023-08-12T06:19:39;28.35;;;5.60;;
41309;SDS011;27057;51.438;-0.010;2023-08-12T06:22:07;24.95;;;4.80;;
41309;SDS011;27057;51.438;-0.010;2023-08-12T06:24:34;26.63;;;4.72;;
41309;SDS011;27057;51.438;-0.010;2023-08-12T06:27:01;34.88;;;5.65;;
41309;SDS011;27057;51.438;-0.010;2023-08-12T06:29:29;28.98;;;6.10;;
41309;SDS011;27057;51.438;-0.010;2023-08-12T06:31:56;31.92;;;5.60;;
41309;SDS011;27057;51.438;-0.010;2023-08-12T06:34:24;25.60;;;4.43;;
41309;SDS011;27057;51.438;-0.010;2023-08-12T06:36:51;37.33;;;5.68;;
41309;SDS011;27057;51.438;-0.010;2023-08-12T06:39:18;31.55;;;6.18;;
41309;SDS011;27057;51.438;-0.010;2023-08-12T06:41:46;29.13;;;6.22;;
41309;SDS011;27057;51.438;-0.010;2023-08-12T06:44:13;33.55;;;7.10;;
41309;SDS011;27057;51.438;-0.010;2023-08-12T06:46:40;22.70;;;4.85;;
41309;SDS011;27057;51.438;-0.010;2023-08-12T06:49:08;30.40;;;6.90;;
41309;SDS011;27057;51.438;-0.010;2023-08-12T06:51:35;35.33;;;5.80;;
41309;SDS011;27057;51.438;-0.010;2023-08-12T06:54:03;34.30;;;5.18;;
41309;SDS011;27057;51.438;-0.010;2023-08-12T06:56:31;21.15;;;5.30;;
41309;SDS011;27057;51.438;-0.010;2023-08-12T06:58:58;21.50;;;5.30;;
41309;SDS011;27057;51.438;-0.010;2023-08-12T07:01:25;27.20;;;4.80;;
41309;SDS011;27057;51.438;-0.010;2023-08-12T07:03:53;36.65;;;5.30;;
41309;SDS011;27057;51.438;-0.010;2023-08-12T07:06:20;23.35;;;4.38;;
41309;SDS011;27057;51.438;-0.010;2023-08-12T07:08:48;24.63;;;4.72;;
41309;SDS011;27057;51.438;-0.010;2023-08-12T07:11:16;20.80;;;5.25;;
41309;SDS011;27057;51.438;-0.010;2023-08-12T07:13:43;23.33;;;5.13;;
41309;SDS011;27057;51.438;-0.010;2023-08-12T07:16:13;25.73;;;4.10;;
41309;SDS011;27057;51.438;-0.010;2023-08-12T07:18:40;14.50;;;4.32;;
41309;SDS011;27057;51.438;-0.010;2023-08-12T07:21:08;27.65;;;5.20;;
41309;SDS011;27057;51.438;-0.010;2023-08-12T07:23:35;21.63;;;4.35;;
41309;SDS011;27057;51.438;-0.010;2023-08-12T07:26:02;28.20;;;6.93;;
41309;SDS011;27057;51.438;-0.010;2023-08-12T07:28:30;29.83;;;5.70;;
41309;SDS011;27057;51.438;-0.010;2023-08-12T07:30:59;22.23;;;4.55;;
41309;SDS011;27057;51.438;-0.010;2023-08-12T07:33:28;27.52;;;4.35;;
41309;SDS011;27057;51.438;-0.010;2023-08-12T07:35:55;13.30;;;3.88;;
41309;SDS011;27057;51.438;-0.010;2023-08-12T07:38:23;33.17;;;4.63;;
41309;SDS011;27057;51.438;-0.010;2023-08-12T07:40:50;14.48;;;3.65;;
41309;SDS011;27057;51.438;-0.010;2023-08-12T07:43:18;19.35;;;3.92;;
41309;SDS011;27057;51.438;-0.010;2023-08-12T07:45:45;24.85;;;4.95;;
41309;SDS011;27057;51.438;-0.010;2023-08-12T07:48:34;26.58;;;5.43;;
41309;SDS011;27057;51.438;-0.010;2023-08-12T07:51:01;24.20;;;3.90;;
41309;SDS011;27057;51.438;-0.010;2023-08-12T07:53:29;20.92;;;3.97;;
41309;SDS011;27057;51.438;-0.010;2023-08-12T07:55:56;28.38;;;4.10;;
41309;SDS011;27057;51.438;-0.010;2023-08-12T07:58:23;29.65;;;4.82;;
41309;SDS011;27057;51.438;-0.010;2023-08-12T08:00:53;30.55;;;5.60;;
41309;SDS011;27057;51.438;-0.010;2023-08-12T08:03:21;28.80;;;5.15;;
41309;SDS011;27057;51.438;-0.010;2023-08-12T08:05:48;22.08;;;3.30;;
41309;SDS011;27057;51.438;-0.010;2023-08-12T08:08:16;17.30;;;3.20;;
41309;SDS011;27057;51.438;-0.010;2023-08-12T08:10:45;18.42;;;4.00;;
41309;SDS011;27057;51.438;-0.010;2023-08-12T08:13:12;23.73;;;4.32;;
41309;SDS011;27057;51.438;-0.010;2023-08-12T08:15:40;26.33;;;5.90;;
41309;SDS011;27057;51.438;-0.010;2023-08-12T08:18:07;32.08;;;4.47;;
41309;SDS011;27057;51.438;-0.010;2023-08-12T08:20:34;25.15;;;3.95;;
41309;SDS011;27057;51.438;-0.010;2023-08-12T08:23:02;22.58;;;4.35;;
41309;SDS011;27057;51.438;-0.010;2023-08-12T08:25:29;24.95;;;5.03;;
41309;SDS011;27057;51.438;-0.010;2023-08-12T08:27:57;20.35;;;3.17;;
41309;SDS011;27057;51.438;-0.010;2023-08-12T08:30:24;31.52;;;4.68;;
41309;SDS011;27057;51.438;-0.010;2023-08-12T08:32:52;21.83;;;4.63;;
41309;SDS011;27057;51.438;-0.010;2023-08-12T08:35:20;27.00;;;3.85;;
41309;SDS011;27057;51.438;-0.010;2023-08-12T08:37:47;19.23;;;4.07;;
41309;SDS011;27057;51.438;-0.010;2023-08-12T08:40:15;20.70;;;3.83;;
41309;SDS011;27057;51.438;-0.010;2023-08-12T08:42:44;28.83;;;3.75;;
41309;SDS011;27057;51.438;-0.010;2023-08-12T08:45:18;22.23;;;4.65;;
41309;SDS011;27057;51.438;-0.010;2023-08-12T08:47:47;17.25;;;2.78;;
41309;SDS011;27057;51.438;-0.010;2023-08-12T08:50:16;19.85;;;3.30;;
41309;SDS011;27057;51.438;-0.010;2023-08-12T08:52:44;23.73;;;2.92;;
41309;SDS011;27057;51.438;-0.010;2023-08-12T08:55:12;14.52;;;2.30;;
41309;SDS011;27057;51.438;-0.010;2023-08-12T08:57:40;20.05;;;3.10;;
41309;SDS011;27057;51.438;-0.010;2023-08-12T09:00:14;21.42;;;3.17;;
41309;SDS011;27057;51.438;-0.010;2023-08-12T09:02:47;12.57;;;2.83;;
41309;SDS011;27057;51.438;-0.010;2023-08-12T09:05:16;16.85;;;3.00;;
41309;SDS011;27057;51.438;-0.010;2023-08-12T09:07:45;18.48;;;3.63;;
41309;SDS011;27057;51.438;-0.010;2023-08-12T09:10:14;20.10;;;3.35;;
41309;SDS011;27057;51.438;-0.010;2023-08-12T09:12:42;17.40;;;3.20;;
41309;SDS011;27057;51.438;-0.010;2023-08-12T09:15:10;19.00;;;3.25;;
41309;SDS011;27057;51.438;-0.010;2023-08-12T09:17:38;18.20;;;3.67;;
41309;SDS011;27057;51.438;-0.010;2023-08-12T09:20:05;15.73;;;3.35;;
41309;SDS011;27057;51.438;-0.010;2023-08-12T09:22:42;30.02;;;3.70;;
41309;SDS011;27057;51.438;-0.010;2023-08-12T09:25:10;22.88;;;3.53;;
41309;SDS011;27057;51.438;-0.010;2023-08-12T09:27:38;25.65;;;3.65;;
41309;SDS011;27057;51.438;-0.010;2023-08-12T09:30:06;21.98;;;4.72;;
41309;SDS011;27057;51.438;-0.010;2023-08-12T09:32:34;19.60;;;3.20;;
41309;SDS011;27057;51.438;-0.010;2023-08-12T09:35:02;17.60;;;3.58;;
41309;SDS011;27057;51.438;-0.010;2023-08-12T09:37:30;19.92;;;3.08;;
41309;SDS011;27057;51.438;-0.010;2023-08-12T09:39:58;14.15;;;2.65;;
41309;SDS011;27057;51.438;-0.010;2023-08-12T09:42:25;22.70;;;3.40;;
41309;SDS011;27057;51.438;-0.010;2023-08-12T09:44:56;21.23;;;3.17;;
41309;SDS011;27057;51.438;-0.010;2023-08-12T09:47:25;11.75;;;2.47;;
41309;SDS011;27057;51.438;-0.010;2023-08-12T09:49:53;19.83;;;3.67;;
41309;SDS011;27057;51.438;-0.010;2023-08-12T09:52:21;15.90;;;2.53;;
41309;SDS011;27057;51.438;-0.010;2023-08-12T09:54:49;14.30;;;2.50;;
41309;SDS011;27057;51.438;-0.010;2023-08-12T09:57:18;16.20;;;2.95;;
41309;SDS011;27057;51.438;-0.010;2023-08-12T09:59:49;19.50;;;3.35;;
41309;SDS011;27057;51.438;-0.010;2023-08-12T10:02:17;17.27;;;3.85;;
41309;SDS011;27057;51.438;-0.010;2023-08-12T10:04:46;14.05;;;3.97;;
41309;SDS011;27057;51.438;-0.010;2023-08-12T10:07:17;30.35;;;4.07;;
41309;SDS011;27057;51.438;-0.010;2023-08-12T10:09:45;17.65;;;3.45;;
41309;SDS011;27057;51.438;-0.010;2023-08-12T10:12:14;19.02;;;3.88;;
41309;SDS011;27057;51.438;-0.010;2023-08-12T10:14:45;25.05;;;3.67;;
41309;SDS011;27057;51.438;-0.010;2023-08-12T10:17:14;14.13;;;3.20;;
41309;SDS011;27057;51.438;-0.010;2023-08-12T10:19:55;22.67;;;3.42;;
41309;SDS011;27057;51.438;-0.010;2023-08-12T10:22:28;18.17;;;2.88;;
41309;SDS011;27057;51.438;-0.010;2023-08-12T10:24:58;18.40;;;3.40;;
41309;SDS011;27057;51.438;-0.010;2023-08-12T10:27:26;13.88;;;2.80;;
41309;SDS011;27057;51.438;-0.010;2023-08-12T10:29:56;17.17;;;3.38;;
41309;SDS011;27057;51.438;-0.010;2023-08-12T10:32:26;15.73;;;2.85;;
41309;SDS011;27057;51.438;-0.010;2023-08-12T10:34:57;28.75;;;5.53;;
41309;SDS011;27057;51.438;-0.010;2023-08-12T10:37:25;18.38;;;2.95;;
41309;SDS011;27057;51.438;-0.010;2023-08-12T10:39:53;21.55;;;3.28;;
41309;SDS011;27057;51.438;-0.010;2023-08-12T10:45:18;12.77;;;2.40;;
41309;SDS011;27057;51.438;-0.010;2023-08-12T10:48:09;24.90;;;4.15;;
41309;SDS011;27057;51.438;-0.010;2023-08-12T10:50:39;10.48;;;2.28;;
41309;SDS011;27057;51.438;-0.010;2023-08-12T10:56:16;18.10;;;4.10;;
41309;SDS011;27057;51.438;-0.010;2023-08-12T11:01:21;18.48;;;3.20;;
41309;SDS011;27057;51.438;-0.010;2023-08-12T11:03:50;20.88;;;3.60;;
41309;SDS011;27057;51.438;-0.010;2023-08-12T11:06:17;24.38;;;4.80;;
41309;SDS011;27057;51.438;-0.010;2023-08-12T11:08:52;25.73;;;4.63;;
41309;SDS011;27057;51.438;-0.010;2023-08-12T11:11:21;23.08;;;3.83;;
41309;SDS011;27057;51.438;-0.010;2023-08-12T11:13:58;18.17;;;3.08;;
41309;SDS011;27057;51.438;-0.010;2023-08-12T11:16:35;21.33;;;3.78;;
41309;SDS011;27057;51.438;-0.010;2023-08-12T11:19:03;20.83;;;3.53;;
41309;SDS011;27057;51.438;-0.010;2023-08-12T11:21:31;26.45;;;4.88;;
41309;SDS011;27057;51.438;-0.010;2023-08-12T11:23:58;17.55;;;3.25;;
41309;SDS011;27057;51.438;-0.010;2023-08-12T11:26:26;25.67;;;3.63;;
41309;SDS011;27057;51.438;-0.010;2023-08-12T11:28:54;15.32;;;3.20;;
41309;SDS011;27057;51.438;-0.010;2023-08-12T11:31:21;17.92;;;3.30;;
41309;SDS011;27057;51.438;-0.010;2023-08-12T11:33:50;26.55;;;4.95;;
41309;SDS011;27057;51.438;-0.010;2023-08-12T11:36:19;14.30;;;2.90;;
41309;SDS011;27057;51.438;-0.010;2023-08-12T11:38:46;15.80;;;3.15;;
41309;SDS011;27057;51.438;-0.010;2023-08-12T11:41:16;28.88;;;5.03;;
41309;SDS011;27057;51.438;-0.010;2023-08-12T11:43:44;38.85;;;8.55;;
41309;SDS011;27057;51.438;-0.010;2023-08-12T11:46:12;9.75;;;2.50;;
41309;SDS011;27057;51.438;-0.010;2023-08-12T11:48:43;10.75;;;3.38;;
41309;SDS011;27057;51.438;-0.010;2023-08-12T11:51:10;16.45;;;3.67;;
41309;SDS011;27057;51.438;-0.010;2023-08-12T11:53:38;28.25;;;12.18;;
41309;SDS011;27057;51.438;-0.010;2023-08-12T11:56:05;21.85;;;3.53;;
41309;SDS011;27057;51.438;-0.010;2023-08-12T11:58:42;23.05;;;3.38;;
41309;SDS011;27057;51.438;-0.010;2023-08-12T12:01:20;13.38;;;3.97;;
41309;SDS011;27057;51.438;-0.010;2023-08-12T12:03:52;15.02;;;2.25;;
41309;SDS011;27057;51.438;-0.010;2023-08-12T12:06:32;16.65;;;2.80;;
41309;SDS011;27057;51.438;-0.010;2023-08-12T12:09:05;12.43;;;3.17;;
41309;SDS011;27057;51.438;-0.010;2023-08-12T12:11:36;20.98;;;3.33;;
41309;SDS011;27057;51.438;-0.010;2023-08-12T12:14:04;16.73;;;3.03;;
41309;SDS011;27057;51.438;-0.010;2023-08-12T12:16:40;16.17;;;2.83;;
41309;SDS011;27057;51.438;-0.010;2023-08-12T12:19:18;28.15;;;7.45;;
41309;SDS011;27057;51.438;-0.010;2023-08-12T12:21:51;13.98;;;4.50;;
41309;SDS011;27057;51.438;-0.010;2023-08-12T12:24:19;19.92;;;4.45;;
41309;SDS011;27057;51.438;-0.010;2023-08-12T12:26:47;27.30;;;9.38;;
41309;SDS011;27057;51.438;-0.010;2023-08-12T12:29:16;21.45;;;3.67;;
41309;SDS011;27057;51.438;-0.010;2023-08-12T12:31:43;20.40;;;4.03;;
41309;SDS011;27057;51.438;-0.010;2023-08-12T12:34:10;20.20;;;4.50;;
41309;SDS011;27057;51.438;-0.010;2023-08-12T12:36:38;17.75;;;3.13;;
41309;SDS011;27057;51.438;-0.010;2023-08-12T12:39:06;19.02;;;3.45;;
41309;SDS011;27057;51.438;-0.010;2023-08-12T12:41:34;10.98;;;2.90;;
41309;SDS011;27057;51.438;-0.010;2023-08-12T12:44:02;13.43;;;2.95;;
41309;SDS011;27057;51.438;-0.010;2023-08-12T12:46:29;5.43;;;1.95;;
41309;SDS011;27057;51.438;-0.010;2023-08-12T12:48:57;12.60;;;2.78;;
41309;SDS011;27057;51.438;-0.010;2023-08-12T12:51:24;19.30;;;2.85;;
41309;SDS011;27057;51.438;-0.010;2023-08-12T12:53:51;12.07;;;2.45;;
41309;SDS011;27057;51.438;-0.010;2023-08-12T12:56:20;8.30;;;2.03;;
41309;SDS011;27057;51.438;-0.010;2023-08-12T12:58:47;18.42;;;3.10;;
41309;SDS011;27057;51.438;-0.010;2023-08-12T13:01:14;20.88;;;2.67;;
41309;SDS011;27057;51.438;-0.010;2023-08-12T13:03:42;14.88;;;2.40;;
41309;SDS011;27057;51.438;-0.010;2023-08-12T13:06:10;12.20;;;2.10;;
41309;SDS011;27057;51.438;-0.010;2023-08-12T13:08:37;15.18;;;2.88;;
41309;SDS011;27057;51.438;-0.010;2023-08-12T13:11:05;17.08;;;2.78;;
41309;SDS011;27057;51.438;-0.010;2023-08-12T13:13:32;2.90;;;1.20;;
41309;SDS011;27057;51.438;-0.010;2023-08-12T13:15:59;10.25;;;2.45;;
41309;SDS011;27057;51.438;-0.010;2023-08-12T13:18:27;10.85;;;1.88;;
41309;SDS011;27057;51.438;-0.010;2023-08-12T13:20:54;10.23;;;2.60;;
41309;SDS011;27057;51.438;-0.010;2023-08-12T13:23:22;16.52;;;2.70;;
41309;SDS011;27057;51.438;-0.010;2023-08-12T13:25:49;11.38;;;2.22;;
41309;SDS011;27057;51.438;-0.010;2023-08-12T13:28:16;11.38;;;2.15;;
41309;SDS011;27057;51.438;-0.010;2023-08-12T13:30:44;9.95;;;2.00;;
41309;SDS011;27057;51.438;-0.010;2023-08-12T13:33:12;17.13;;;2.78;;
41309;SDS011;27057;51.438;-0.010;2023-08-12T13:35:39;11.77;;;3.22;;
41309;SDS011;27057;51.438;-0.010;2023-08-12T13:38:07;19.15;;;3.53;;
41309;SDS011;27057;51.438;-0.010;2023-08-12T13:40:34;17.50;;;3.75;;
41309;SDS011;27057;51.438;-0.010;2023-08-12T13:43:01;19.95;;;3.03;;
41309;SDS011;27057;51.438;-0.010;2023-08-12T13:45:29;18.45;;;2.80;;
41309;SDS011;27057;51.438;-0.010;2023-08-12T13:47:56;12.63;;;2.53;;
41309;SDS011;27057;51.438;-0.010;2023-08-12T13:50:24;14.82;;;2.60;;
41309;SDS011;27057;51.438;-0.010;2023-08-12T13:52:51;14.85;;;2.20;;
41309;SDS011;27057;51.438;-0.010;2023-08-12T13:55:18;12.43;;;2.58;;
41309;SDS011;27057;51.438;-0.010;2023-08-12T13:57:46;10.65;;;2.42;;
41309;SDS011;27057;51.438;-0.010;2023-08-12T14:00:13;18.17;;;2.45;;
41309;SDS011;27057;51.438;-0.010;2023-08-12T14:02:42;13.70;;;2.70;;
41309;SDS011;27057;51.438;-0.010;2023-08-12T14:05:10;14.02;;;2.40;;
41309;SDS011;27057;51.438;-0.010;2023-08-12T14:07:38;11.50;;;1.98;;
41309;SDS011;27057;51.438;-0.010;2023-08-12T14:10:05;13.65;;;1.75;;
41309;SDS011;27057;51.438;-0.010;2023-08-12T14:12:33;20.25;;;2.53;;
41309;SDS011;27057;51.438;-0.010;2023-08-12T14:15:01;10.02;;;2.72;;
41309;SDS011;27057;51.438;-0.010;2023-08-12T14:17:29;11.40;;;2.53;;
41309;SDS011;27057;51.438;-0.010;2023-08-12T14:19:56;17.45;;;2.53;;
41309;SDS011;27057;51.438;-0.010;2023-08-12T14:22:26;11.10;;;2.03;;
41309;SDS011;27057;51.438;-0.010;2023-08-12T14:24:53;15.15;;;2.35;;
41309;SDS011;27057;51.438;-0.010;2023-08-12T14:27:22;22.80;;;2.85;;
41309;SDS011;27057;51.438;-0.010;2023-08-12T14:29:49;18.30;;;2.30;;
41309;SDS011;27057;51.438;-0.010;2023-08-12T14:32:16;13.10;;;2.38;;
41309;SDS011;27057;51.438;-0.010;2023-08-12T14:34:45;10.20;;;2.55;;
41309;SDS011;27057;51.438;-0.010;2023-08-12T14:37:13;16.65;;;2.80;;
41309;SDS011;27057;51.438;-0.010;2023-08-12T14:39:41;15.40;;;2.90;;